createdAt,value
2023-03-18T00:00:41.364Z,63.42
2023-03-18T00:03:17.417Z,63.46
2023-03-18T00:05:44.984Z,63.50
2023-03-18T00:08:11.682Z,64.42
2023-03-18T00:10:39.025Z,66.22
2023-03-18T00:13:05.762Z,67.17
2023-03-18T00:15:32.243Z,67.05
2023-03-18T00:17:59.203Z,66.32
2023-03-18T00:20:28.406Z,65.99
2023-03-18T00:22:56.859Z,65.89
2023-03-18T00:25:23.278Z,66.27
2023-03-18T00:27:50.215Z,66.32
2023-03-18T00:30:17.904Z,66.15
2023-03-18T00:32:44.344Z,65.75
2023-03-18T00:35:11.576Z,66.31
2023-03-18T00:37:38.105Z,65.81
2023-03-18T00:40:09.633Z,65.84
2023-03-18T00:42:39.423Z,65.64
2023-03-18T00:45:08.388Z,65.70
2023-03-18T00:47:35.268Z,65.92
2023-03-18T00:50:02.688Z,65.79
2023-03-18T00:52:31.698Z,65.65
2023-03-18T00:55:00.171Z,65.75
2023-03-18T00:57:28.779Z,65.65
2023-03-18T00:59:56.441Z,65.76
2023-03-18T01:02:23.051Z,65.87
2023-03-18T01:04:50.530Z,66.07
2023-03-18T01:07:17.471Z,66.15
2023-03-18T01:09:44.482Z,66.35
2023-03-18T01:12:12.088Z,66.57
2023-03-18T01:14:39.410Z,66.72
2023-03-18T01:17:07.248Z,66.50
2023-03-18T01:19:34.175Z,66.49
2023-03-18T01:22:01.883Z,66.57
2023-03-18T01:24:28.853Z,66.77
2023-03-18T01:26:56.272Z,66.93
2023-03-18T01:29:23.159Z,67.08
2023-03-18T01:31:50.796Z,67.48
2023-03-18T01:34:18.022Z,67.29
2023-03-18T01:36:45.639Z,67.19
2023-03-18T01:39:12.625Z,67.48
2023-03-18T01:41:39.710Z,67.62
2023-03-18T01:44:12.862Z,67.66
2023-03-18T01:46:44.293Z,67.64
2023-03-18T01:49:40.899Z,67.76
2023-03-18T01:52:16.325Z,67.95
2023-03-18T01:54:48.972Z,67.86
2023-03-18T01:57:17.262Z,67.92
2023-03-18T01:59:47.060Z,68.27
2023-03-18T02:02:15.700Z,67.87
2023-03-18T02:04:46.993Z,67.71
2023-03-18T02:07:19.367Z,68.04
2023-03-18T02:09:47.443Z,67.98
2023-03-18T02:12:19.063Z,68.02
2023-03-18T02:14:46.092Z,68.13
2023-03-18T02:17:18.742Z,68.08
2023-03-18T02:19:54.247Z,68.87
2023-03-18T02:22:33.489Z,68.94
2023-03-18T02:25:45.337Z,68.71
2023-03-18T02:28:17.288Z,68.49
2023-03-18T02:30:48.342Z,68.49
2023-03-18T02:33:17.348Z,68.41
2023-03-18T02:35:46.804Z,68.34
2023-03-18T02:38:13.420Z,68.73
2023-03-18T02:40:41.977Z,68.69
2023-03-18T02:43:16.364Z,68.49
2023-03-18T02:46:12.293Z,68.52
2023-03-18T02:48:42.721Z,68.35
2023-03-18T02:51:10.471Z,68.40
2023-03-18T02:53:37.683Z,68.56
2023-03-18T02:56:05.151Z,68.94
2023-03-18T02:58:32.138Z,69.10
2023-03-18T03:00:59.107Z,68.98
2023-03-18T03:03:26.050Z,68.63
2023-03-18T03:05:53.172Z,68.72
2023-03-18T03:08:19.789Z,68.63
2023-03-18T03:10:46.645Z,68.42
2023-03-18T03:13:13.103Z,68.49
2023-03-18T03:15:40.090Z,68.61
2023-03-18T03:18:07.023Z,68.43
2023-03-18T03:20:34.977Z,68.49
2023-03-18T03:23:03.379Z,68.55
2023-03-18T03:25:30.289Z,68.64
2023-03-18T03:27:56.947Z,68.61
2023-03-18T03:30:23.770Z,68.52
2023-03-18T03:32:51.075Z,68.57
2023-03-18T03:35:18.956Z,68.79
2023-03-18T03:37:45.477Z,68.80
2023-03-18T03:40:15.398Z,68.74
2023-03-18T03:42:42.523Z,69.00
2023-03-18T03:45:09.657Z,69.09
2023-03-18T03:47:36.327Z,68.92
2023-03-18T03:50:03.392Z,68.92
2023-03-18T03:52:29.867Z,68.97
2023-03-18T03:54:56.320Z,69.04
2023-03-18T03:57:26.492Z,69.02
2023-03-18T03:59:53.571Z,69.07
2023-03-18T04:02:23.146Z,69.11
2023-03-18T04:04:50.998Z,69.21
2023-03-18T04:07:17.614Z,69.46
2023-03-18T04:09:44.058Z,69.50
2023-03-18T04:12:11.423Z,69.60
2023-03-18T04:14:38.757Z,69.63
2023-03-18T04:17:05.723Z,69.64
2023-03-18T04:19:33.281Z,69.72
2023-03-18T04:21:59.678Z,69.69
2023-03-18T04:24:26.697Z,69.81
2023-03-18T04:26:53.507Z,69.85
2023-03-18T04:29:20.392Z,69.94
2023-03-18T04:31:46.986Z,69.85
2023-03-18T04:34:13.401Z,69.82
2023-03-18T04:36:39.996Z,69.69
2023-03-18T04:39:08.832Z,69.76
2023-03-18T04:41:39.142Z,69.77
2023-03-18T04:44:05.888Z,69.95
2023-03-18T04:46:32.584Z,69.88
2023-03-18T04:48:59.169Z,69.82
2023-03-18T04:51:25.801Z,69.89
2023-03-18T04:53:53.105Z,70.02
2023-03-18T04:56:20.140Z,70.32
2023-03-18T04:58:47.231Z,70.56
2023-03-18T05:01:14.311Z,70.51
2023-03-18T05:03:41.125Z,70.61
2023-03-18T05:06:08.916Z,70.64
2023-03-18T05:08:35.362Z,70.72
2023-03-18T05:11:01.742Z,70.61
2023-03-18T05:13:28.642Z,70.67
2023-03-18T05:15:55.039Z,70.42
2023-03-18T05:18:21.393Z,70.32
2023-03-18T05:20:47.795Z,70.24
2023-03-18T05:23:14.293Z,70.28
2023-03-18T05:25:40.958Z,70.48
2023-03-18T05:28:08.851Z,70.48
2023-03-18T05:30:39.896Z,70.83
2023-03-18T05:33:07.239Z,71.36
2023-03-18T05:35:34.068Z,71.42
2023-03-18T05:38:01.161Z,71.74
2023-03-18T05:40:28.242Z,71.45
2023-03-18T05:42:56.478Z,70.83
2023-03-18T05:45:24.856Z,70.37
2023-03-18T05:47:52.245Z,70.25
2023-03-18T05:50:29.456Z,70.12
2023-03-18T05:52:56.222Z,69.92
2023-03-18T05:55:22.852Z,69.83
2023-03-18T05:57:49.786Z,70.27
2023-03-18T06:00:18.095Z,71.93
2023-03-18T06:02:45.687Z,72.11
2023-03-18T06:05:12.785Z,71.97
2023-03-18T06:07:39.237Z,70.78
2023-03-18T06:10:07.327Z,70.77
2023-03-18T06:12:35.373Z,70.74
2023-03-18T06:15:03.072Z,70.53
2023-03-18T06:17:29.499Z,70.13
2023-03-18T06:19:56.537Z,69.80
2023-03-18T06:22:22.964Z,69.73
2023-03-18T06:24:49.421Z,69.30
2023-03-18T06:27:16.482Z,68.96
2023-03-18T06:29:43.557Z,68.58
2023-03-18T06:32:10.170Z,68.17
2023-03-18T06:34:37.287Z,67.86
2023-03-18T06:37:04.377Z,67.58
2023-03-18T06:39:31.242Z,67.18
2023-03-18T06:41:58.250Z,66.70
2023-03-18T06:44:24.696Z,66.47
2023-03-18T06:46:51.109Z,66.15
2023-03-18T06:49:17.768Z,65.87
2023-03-18T06:51:44.827Z,65.69
2023-03-18T06:54:11.838Z,65.56
2023-03-18T06:56:39.469Z,65.24
2023-03-18T06:59:07.364Z,64.83
2023-03-18T07:01:35.443Z,64.89
2023-03-18T07:04:06.053Z,64.40
2023-03-18T07:06:33.095Z,64.11
2023-03-18T07:09:00.596Z,64.15
2023-03-18T07:11:27.538Z,64.07
2023-03-18T07:13:54.079Z,63.56
2023-03-18T07:16:20.757Z,63.60
2023-03-18T07:18:48.132Z,63.58
2023-03-18T07:21:16.057Z,63.26
2023-03-18T07:23:42.513Z,63.11
2023-03-18T07:26:09.774Z,63.13
2023-03-18T07:28:36.190Z,62.84
2023-03-18T07:31:03.352Z,62.54
2023-03-18T07:33:30.268Z,62.36
2023-03-18T07:35:57.102Z,62.39
2023-03-18T07:38:23.733Z,61.95
2023-03-18T07:40:50.196Z,61.68
2023-03-18T07:43:17.196Z,61.42
2023-03-18T07:45:44.316Z,60.63
2023-03-18T07:48:11.178Z,60.23
2023-03-18T07:50:37.657Z,59.39
2023-03-18T07:53:04.078Z,58.58
2023-03-18T07:55:31.327Z,58.30
2023-03-18T07:57:58.997Z,58.00
2023-03-18T08:00:25.611Z,57.27
2023-03-18T08:02:52.275Z,57.50
2023-03-18T08:05:19.383Z,56.71
2023-03-18T08:07:45.934Z,55.83
2023-03-18T08:10:14.470Z,55.06
2023-03-18T08:12:52.552Z,54.56
2023-03-18T08:15:21.598Z,54.53
2023-03-18T08:17:48.377Z,54.63
2023-03-18T08:20:15.309Z,54.54
2023-03-18T08:22:41.805Z,54.07
2023-03-18T08:25:08.908Z,53.70
2023-03-18T08:27:36.024Z,53.46
2023-03-18T08:30:03.944Z,53.53
2023-03-18T08:32:31.886Z,53.71
2023-03-18T08:34:58.897Z,53.45
2023-03-18T08:37:25.378Z,53.42
2023-03-18T08:39:52.026Z,53.34
2023-03-18T08:42:19.012Z,52.96
2023-03-18T08:44:45.982Z,52.52
2023-03-18T08:47:12.901Z,52.92
2023-03-18T08:49:39.523Z,52.89
2023-03-18T08:52:06.305Z,53.01
2023-03-18T08:54:32.830Z,53.10
2023-03-18T08:57:00.030Z,52.96
2023-03-18T08:59:26.982Z,52.59
2023-03-18T09:01:53.415Z,52.57
2023-03-18T09:04:19.870Z,52.17
2023-03-18T09:06:48.145Z,51.81
2023-03-18T09:09:15.149Z,51.83
2023-03-18T09:11:42.116Z,51.13
2023-03-18T09:14:09.001Z,50.75
2023-03-18T09:16:35.733Z,50.00
2023-03-18T09:19:02.765Z,49.70
2023-03-18T09:21:29.277Z,49.31
2023-03-18T09:23:55.934Z,49.56
2023-03-18T09:26:23.330Z,49.72
2023-03-18T09:28:50.285Z,49.34
2023-03-18T09:31:17.470Z,48.89
2023-03-18T09:33:47.203Z,48.54
2023-03-18T09:36:14.138Z,49.16
2023-03-18T09:38:41.925Z,49.54
2023-03-18T09:41:22.701Z,49.22
2023-03-18T09:43:58.428Z,49.35
2023-03-18T09:46:35.403Z,49.02
2023-03-18T09:49:40.884Z,48.65
2023-03-18T09:52:37.036Z,47.82
2023-03-18T09:55:12.558Z,47.43
2023-03-18T09:57:43.660Z,47.77
2023-03-18T10:00:23.629Z,47.84
2023-03-18T10:03:11.117Z,47.74
2023-03-18T10:05:51.410Z,48.05
2023-03-18T10:08:39.148Z,48.15
2023-03-18T10:11:13.532Z,46.88
2023-03-18T10:13:46.206Z,46.97
2023-03-18T10:16:21.134Z,47.14
2023-03-18T10:18:47.670Z,47.43
2023-03-18T10:21:51.850Z,47.49
2023-03-18T10:24:35.439Z,46.02
2023-03-18T10:27:21.812Z,45.81
2023-03-18T10:29:54.122Z,46.24
2023-03-18T10:32:58.343Z,45.92
2023-03-18T10:35:45.067Z,46.00
2023-03-18T10:38:29.137Z,45.81
2023-03-18T10:40:55.862Z,45.90
2023-03-18T10:43:27.499Z,46.28
2023-03-18T10:46:03.185Z,45.90
2023-03-18T10:48:36.837Z,45.52
2023-03-18T10:52:07.921Z,45.52
2023-03-18T10:54:49.680Z,45.42
2023-03-18T10:57:17.970Z,46.21
2023-03-18T10:59:45.429Z,45.87
2023-03-18T11:02:34.331Z,45.61
2023-03-18T11:05:10.853Z,45.77
2023-03-18T11:07:55.189Z,46.01
2023-03-18T11:10:27.108Z,45.62
2023-03-18T11:13:01.817Z,45.42
2023-03-18T11:15:35.622Z,44.85
2023-03-18T11:18:02.694Z,44.88
2023-03-18T11:20:43.380Z,44.89
2023-03-18T11:23:19.994Z,44.68
2023-03-18T11:25:50.604Z,44.62
2023-03-18T11:28:26.590Z,44.89
2023-03-18T11:30:57.067Z,44.54
2023-03-18T11:33:26.359Z,44.44
2023-03-18T11:35:57.624Z,44.28
2023-03-18T11:38:28.005Z,43.71
2023-03-18T11:41:16.426Z,43.79
2023-03-18T11:43:55.676Z,44.14
2023-03-18T11:46:25.825Z,44.25
2023-03-18T11:48:52.397Z,43.69
2023-03-18T11:51:42.243Z,43.16
2023-03-18T11:54:14.947Z,43.02
2023-03-18T11:56:44.987Z,43.10
2023-03-18T11:59:14.358Z,42.83
2023-03-18T12:01:57.016Z,42.72
2023-03-18T12:04:27.085Z,42.79
2023-03-18T12:07:26.807Z,43.00
2023-03-18T12:10:12.355Z,42.91
2023-03-18T12:12:44.917Z,42.62
2023-03-18T12:15:37.869Z,42.11
2023-03-18T12:18:25.002Z,42.21
2023-03-18T12:20:53.489Z,42.36
2023-03-18T12:23:29.410Z,42.35
2023-03-18T12:26:10.619Z,42.49
2023-03-18T12:29:01.589Z,42.15
2023-03-18T12:32:04.292Z,42.38
2023-03-18T12:34:52.642Z,42.38
2023-03-18T12:38:04.246Z,42.44
2023-03-18T12:40:44.805Z,42.03
2023-03-18T12:43:26.535Z,41.58
2023-03-18T12:46:19.216Z,41.67
2023-03-18T12:49:24.731Z,41.32
2023-03-18T12:52:05.750Z,41.75
2023-03-18T12:54:53.230Z,41.58
2023-03-18T12:57:24.071Z,41.56
2023-03-18T13:00:09.806Z,41.40
2023-03-18T13:02:43.327Z,40.97
2023-03-18T13:05:20.005Z,41.28
2023-03-18T13:07:53.503Z,41.24
2023-03-18T13:10:23.060Z,41.13
2023-03-18T13:12:57.386Z,40.86
2023-03-18T13:15:35.340Z,41.48
2023-03-18T13:18:27.618Z,41.03
2023-03-18T13:20:58.971Z,41.37
2023-03-18T13:23:51.816Z,41.17
2023-03-18T13:26:56.347Z,40.88
2023-03-18T13:32:50.618Z,40.94
2023-03-18T13:35:31.874Z,39.98
2023-03-18T13:38:09.451Z,40.71
2023-03-18T13:40:42.647Z,40.62
2023-03-18T13:43:14.975Z,40.70
2023-03-18T13:45:50.722Z,40.57
2023-03-18T13:48:27.352Z,40.01
2023-03-18T13:50:56.884Z,39.29
2023-03-18T13:53:31.378Z,39.34
2023-03-18T13:55:57.813Z,39.96
2023-03-18T13:58:29.789Z,40.10
2023-03-18T14:01:02.606Z,40.17
2023-03-18T14:03:49.728Z,40.07
2023-03-18T14:06:16.139Z,39.84
2023-03-18T14:09:21.186Z,39.84
2023-03-18T14:12:19.957Z,40.08
2023-03-18T14:15:03.433Z,39.88
2023-03-18T14:17:48.422Z,40.10
2023-03-18T14:20:15.535Z,40.41
2023-03-18T14:22:48.055Z,40.07
2023-03-18T14:25:17.324Z,40.40
2023-03-18T14:27:57.819Z,40.58
2023-03-18T14:30:31.274Z,40.72
2023-03-18T14:33:20.128Z,40.77
2023-03-18T14:36:05.061Z,40.33
2023-03-18T14:38:45.984Z,40.19
2023-03-18T14:41:22.057Z,40.11
2023-03-18T14:44:21.498Z,40.26
2023-03-18T14:46:57.755Z,40.40
2023-03-18T14:50:03.473Z,40.02
2023-03-18T14:52:35.817Z,39.54
2023-03-18T14:55:08.471Z,39.63
2023-03-18T14:57:36.039Z,39.43
2023-03-18T15:00:06.050Z,39.61
2023-03-18T15:02:37.393Z,39.79
2023-03-18T15:05:05.869Z,39.84
2023-03-18T15:07:38.356Z,39.93
2023-03-18T15:10:13.164Z,40.01
2023-03-18T15:12:40.122Z,40.17
2023-03-18T15:15:13.178Z,40.12
2023-03-18T15:17:39.674Z,40.51
2023-03-18T15:20:12.195Z,40.78
2023-03-18T15:22:39.391Z,40.52
2023-03-18T15:25:10.556Z,40.24
2023-03-18T15:27:37.735Z,40.28
2023-03-18T15:30:06.637Z,40.22
2023-03-18T15:32:45.111Z,39.93
2023-03-18T15:35:26.010Z,40.26
2023-03-18T15:38:26.328Z,40.25
2023-03-18T15:41:11.779Z,40.06
2023-03-18T15:43:43.340Z,40.02
2023-03-18T15:46:25.168Z,39.94
2023-03-18T15:48:57.023Z,39.74
2023-03-18T15:51:29.391Z,40.11
2023-03-18T15:54:02.596Z,40.53
2023-03-18T15:56:32.395Z,40.61
2023-03-18T15:59:08.445Z,40.50
2023-03-18T16:01:35.798Z,40.30
2023-03-18T16:04:06.010Z,40.17
2023-03-18T16:06:33.855Z,40.43
2023-03-18T16:09:01.301Z,40.49
2023-03-18T16:11:29.350Z,40.59
2023-03-18T16:13:56.137Z,40.76
2023-03-18T16:16:27.276Z,40.93
2023-03-18T16:18:53.977Z,40.99
2023-03-18T16:21:20.504Z,41.24
2023-03-18T16:23:47.769Z,41.34
2023-03-18T16:26:16.798Z,41.46
2023-03-18T16:28:47.109Z,41.42
2023-03-18T16:31:15.044Z,41.62
2023-03-18T16:33:41.980Z,41.73
2023-03-18T16:36:25.161Z,41.77
2023-03-18T16:38:52.024Z,41.97
2023-03-18T16:41:19.234Z,42.12
2023-03-18T16:43:48.473Z,42.13
2023-03-18T16:46:16.751Z,42.25
2023-03-18T16:48:43.245Z,42.38
2023-03-18T16:51:10.112Z,42.48
2023-03-18T16:53:36.504Z,42.68
2023-03-18T16:56:08.189Z,42.78
2023-03-18T16:58:35.961Z,42.88
2023-03-18T17:01:06.563Z,42.87
2023-03-18T17:03:34.309Z,43.12
2023-03-18T17:06:01.371Z,43.19
2023-03-18T17:08:27.813Z,43.51
2023-03-18T17:10:57.719Z,43.57
2023-03-18T17:13:27.836Z,43.79
2023-03-18T17:15:54.911Z,43.99
2023-03-18T17:18:24.253Z,44.16
2023-03-18T17:20:51.385Z,44.32
2023-03-18T17:23:26.619Z,44.55
2023-03-18T17:25:56.224Z,44.71
2023-03-18T17:28:33.829Z,44.75
2023-03-18T17:31:00.487Z,44.96
2023-03-18T17:33:32.115Z,45.12
2023-03-18T17:36:01.213Z,45.29
2023-03-18T17:38:30.056Z,45.32
2023-03-18T17:40:58.115Z,45.42
2023-03-18T17:43:35.913Z,45.65
2023-03-18T17:46:04.331Z,45.81
2023-03-18T17:48:33.937Z,45.91
2023-03-18T17:51:04.137Z,46.00
2023-03-18T17:53:39.318Z,46.06
2023-03-18T17:56:09.878Z,46.19
2023-03-18T17:58:36.520Z,46.30
2023-03-18T18:01:11.982Z,46.43
2023-03-18T18:03:39.913Z,46.56
2023-03-18T18:06:07.684Z,46.75
2023-03-18T18:08:34.126Z,46.80
2023-03-18T18:11:17.109Z,46.93
2023-03-18T18:13:43.746Z,47.22
2023-03-18T18:16:10.346Z,47.35
2023-03-18T18:18:36.992Z,47.32
2023-03-18T18:21:10.587Z,47.53
2023-03-18T18:23:38.410Z,47.60
2023-03-18T18:26:11.587Z,47.61
2023-03-18T18:28:40.453Z,47.72
2023-03-18T18:31:10.160Z,47.90
2023-03-18T18:33:39.002Z,47.93
2023-03-18T18:36:06.367Z,48.14
2023-03-18T18:38:33.896Z,48.31
2023-03-18T18:41:00.875Z,48.37
2023-03-18T18:43:30.387Z,48.49
2023-03-18T18:45:57.874Z,48.69
2023-03-18T18:48:33.527Z,48.61
2023-03-18T18:51:05.447Z,48.67
2023-03-18T18:53:38.964Z,48.93
2023-03-18T18:56:22.925Z,49.09
2023-03-18T18:58:50.408Z,49.07
2023-03-18T19:01:18.246Z,49.04
2023-03-18T19:03:46.308Z,49.04
2023-03-18T19:06:25.484Z,49.06
2023-03-18T19:08:54.779Z,49.26
2023-03-18T19:11:23.996Z,49.27
2023-03-18T19:13:53.148Z,49.30
2023-03-18T19:16:33.006Z,49.30
2023-03-18T19:18:59.837Z,49.32
2023-03-18T19:21:27.271Z,49.45
2023-03-18T19:23:54.342Z,49.46
2023-03-18T19:26:21.411Z,49.52
2023-03-18T19:29:00.478Z,49.75
2023-03-18T19:31:34.307Z,49.78
2023-03-18T19:34:02.104Z,49.83
2023-03-18T19:36:31.790Z,49.94
2023-03-18T19:39:00.813Z,50.08
2023-03-18T19:41:28.500Z,50.31
2023-03-18T19:44:01.541Z,50.36
2023-03-18T19:46:38.414Z,50.39
2023-03-18T19:49:23.437Z,50.46
2023-03-18T19:51:51.809Z,50.47
2023-03-18T19:54:24.644Z,50.69
2023-03-18T19:56:53.853Z,50.75
2023-03-18T19:59:23.568Z,50.84
2023-03-18T20:01:51.325Z,50.78
2023-03-18T20:04:22.441Z,50.71
2023-03-18T20:06:50.000Z,50.78
2023-03-18T20:09:19.548Z,51.01
2023-03-18T20:11:49.866Z,50.93
2023-03-18T20:14:27.451Z,50.97
2023-03-18T20:16:55.743Z,51.01
2023-03-18T20:19:22.322Z,51.01
2023-03-18T20:21:49.006Z,51.20
2023-03-18T20:24:18.781Z,51.22
2023-03-18T20:26:45.747Z,51.19
2023-03-18T20:29:18.394Z,51.19
2023-03-18T20:31:45.744Z,51.31
2023-03-18T20:34:12.303Z,51.33
2023-03-18T20:36:40.015Z,51.37
2023-03-18T20:39:13.640Z,51.44
2023-03-18T20:41:40.593Z,51.54
2023-03-18T20:44:11.817Z,51.43
2023-03-18T20:46:39.847Z,51.39
2023-03-18T20:49:06.800Z,51.45
2023-03-18T20:51:37.360Z,51.58
2023-03-18T20:54:18.465Z,51.63
2023-03-18T20:56:46.878Z,51.55
2023-03-18T20:59:14.074Z,51.52
2023-03-18T21:01:41.241Z,51.47
2023-03-18T21:04:12.065Z,51.67
2023-03-18T21:06:40.529Z,51.56
2023-03-18T21:09:09.567Z,51.60
2023-03-18T21:11:37.381Z,51.51
2023-03-18T21:14:06.670Z,51.62
2023-03-18T21:16:37.594Z,51.49
2023-03-18T21:19:04.537Z,51.46
2023-03-18T21:21:37.949Z,51.60
2023-03-18T21:24:26.302Z,51.71
2023-03-18T21:27:05.608Z,51.71
2023-03-18T21:29:33.329Z,51.94
2023-03-18T21:32:01.930Z,52.02
2023-03-18T21:34:29.006Z,52.08
2023-03-18T21:36:55.809Z,52.12
2023-03-18T21:39:22.534Z,52.11
2023-03-18T21:41:49.010Z,52.38
2023-03-18T21:44:15.643Z,52.43
2023-03-18T21:46:43.124Z,52.54
2023-03-18T21:49:10.563Z,52.60
2023-03-18T21:51:40.190Z,52.68
2023-03-18T21:54:18.303Z,52.84
2023-03-18T21:56:45.739Z,52.72
2023-03-18T21:59:12.391Z,52.84
2023-03-18T22:01:39.064Z,53.02
2023-03-18T22:04:06.328Z,53.06
2023-03-18T22:06:33.410Z,53.23
2023-03-18T22:09:00.040Z,53.50
2023-03-18T22:11:27.523Z,53.40
2023-03-18T22:13:54.657Z,53.32
2023-03-18T22:16:21.882Z,53.41
2023-03-18T22:18:48.808Z,53.41
2023-03-18T22:21:23.834Z,53.53
2023-03-18T22:23:51.302Z,53.60
2023-03-18T22:26:19.916Z,53.64
2023-03-18T22:28:52.550Z,53.68
2023-03-18T22:31:25.472Z,53.80
2023-03-18T22:33:55.627Z,53.75
2023-03-18T22:36:23.166Z,53.82
2023-03-18T22:38:49.755Z,53.76
2023-03-18T22:41:28.737Z,53.91
2023-03-18T22:43:57.376Z,53.89
2023-03-18T22:46:24.548Z,53.83
2023-03-18T22:48:51.335Z,53.84
2023-03-18T22:51:29.118Z,53.91
2023-03-18T22:53:56.523Z,53.97
2023-03-18T22:56:23.639Z,54.10
2023-03-18T22:58:51.364Z,54.22
2023-03-18T23:01:27.361Z,54.40
2023-03-18T23:03:53.884Z,54.37
2023-03-18T23:06:23.265Z,54.45
2023-03-18T23:08:50.260Z,54.69
2023-03-18T23:11:16.886Z,54.79
2023-03-18T23:13:47.518Z,54.85
2023-03-18T23:16:17.404Z,55.05
2023-03-18T23:18:44.062Z,54.86
2023-03-18T23:21:19.914Z,54.94
2023-03-18T23:23:47.772Z,55.03
2023-03-18T23:26:15.556Z,54.94
2023-03-18T23:28:44.805Z,55.24
2023-03-18T23:31:13.513Z,55.40
2023-03-18T23:33:40.439Z,55.34
2023-03-18T23:36:08.178Z,55.16
2023-03-18T23:38:34.770Z,55.20
2023-03-18T23:41:01.327Z,55.29
2023-03-18T23:43:27.936Z,55.29
2023-03-18T23:45:56.254Z,55.41
2023-03-18T23:48:23.349Z,55.34
2023-03-18T23:50:50.089Z,55.51
2023-03-18T23:53:16.686Z,55.39
2023-03-18T23:55:43.276Z,55.64
2023-03-18T23:58:10.225Z,55.68
